createdAt,value
2019-05-01T00:00:16.535Z,25.73
2019-05-01T00:03:03.137Z,24.53
2019-05-01T00:05:33.188Z,25.63
2019-05-01T00:08:01.598Z,26.10
2019-05-01T00:10:30.716Z,27.47
2019-05-01T00:12:59.128Z,28.07
2019-05-01T00:15:29.158Z,27.57
2019-05-01T00:17:57.565Z,28.10
2019-05-01T00:20:25.940Z,28.93
2019-05-01T00:22:54.355Z,30.73
2019-05-01T00:25:22.800Z,29.03
2019-05-01T00:27:51.228Z,30.23
2019-05-01T00:30:29.640Z,25.43
2019-05-01T00:32:51.382Z,27.10
2019-05-01T00:35:19.771Z,27.33
2019-05-01T00:37:48.181Z,27.97
2019-05-01T00:40:16.582Z,27.00
2019-05-01T00:42:44.963Z,26.10
2019-05-01T00:45:13.382Z,28.23
2019-05-01T00:47:41.780Z,32.23
2019-05-01T00:50:10.189Z,32.27
2019-05-01T00:52:38.670Z,32.30
2019-05-01T00:55:24.938Z,33.63
2019-05-01T00:57:54.986Z,34.30
2019-05-01T01:00:42.853Z,33.67
2019-05-01T01:03:04.611Z,30.50
2019-05-01T01:05:32.990Z,31.70
2019-05-01T01:08:01.408Z,30.00
2019-05-01T01:10:29.842Z,28.43
2019-05-01T01:12:58.322Z,28.83
2019-05-01T01:15:26.749Z,28.67
2019-05-01T01:17:55.122Z,28.03
2019-05-01T01:20:23.531Z,29.07
2019-05-01T01:22:51.914Z,28.60
2019-05-01T01:25:20.318Z,29.27
2019-05-01T01:27:48.738Z,31.17
2019-05-01T01:30:17.144Z,29.70
2019-05-01T01:32:45.555Z,27.97
2019-05-01T01:35:13.970Z,27.57
2019-05-01T01:37:42.374Z,29.80
2019-05-01T01:40:10.814Z,29.03
2019-05-01T01:42:40.169Z,32.50
2019-05-01T01:45:22.434Z,34.37
2019-05-01T01:48:08.619Z,31.57
2019-05-01T01:50:37.016Z,31.00
2019-05-01T01:53:05.408Z,31.73
2019-05-01T01:55:33.819Z,33.40
2019-05-01T01:58:02.230Z,31.70
2019-05-01T02:00:47.581Z,33.40
2019-05-01T02:03:15.992Z,33.87
2019-05-01T02:05:45.267Z,34.13
2019-05-01T02:08:14.591Z,35.13
2019-05-01T02:10:43.477Z,32.97
2019-05-01T02:13:11.985Z,34.87
2019-05-01T02:15:40.394Z,33.20
2019-05-01T02:18:08.773Z,29.27
2019-05-01T02:20:37.151Z,28.10
2019-05-01T02:23:05.558Z,31.90
2019-05-01T02:25:35.648Z,32.40
2019-05-01T02:28:21.849Z,31.60
2019-05-01T02:31:06.767Z,32.37
2019-05-01T02:33:35.975Z,32.33
2019-05-01T02:36:04.357Z,32.00
2019-05-01T02:38:32.769Z,32.73
2019-05-01T02:41:01.148Z,32.37
2019-05-01T02:43:29.546Z,32.37
2019-05-01T02:45:58.263Z,31.23
2019-05-01T02:48:26.675Z,29.37
2019-05-01T02:50:55.152Z,28.33
2019-05-01T02:53:23.532Z,26.70
2019-05-01T02:56:10.198Z,27.73
2019-05-01T02:58:38.582Z,28.57
2019-05-01T03:01:06.981Z,28.83
2019-05-01T03:03:35.362Z,28.00
2019-05-01T03:06:03.782Z,28.17
2019-05-01T03:08:32.163Z,29.70
2019-05-01T03:11:00.564Z,32.20
2019-05-01T03:13:29.217Z,31.90
2019-05-01T03:15:57.680Z,31.97
2019-05-01T03:18:27.811Z,32.77
2019-05-01T03:21:00.578Z,31.03
2019-05-01T03:23:33.600Z,33.27
2019-05-01T03:26:02.061Z,32.60
2019-05-01T03:28:30.820Z,33.03
2019-05-01T03:30:59.226Z,33.07
2019-05-01T03:33:27.624Z,32.07
2019-05-01T03:35:56.002Z,35.60
2019-05-01T03:38:24.450Z,36.47
2019-05-01T03:40:52.836Z,30.77
2019-05-01T03:43:21.304Z,30.77
2019-05-01T03:45:49.715Z,32.90
2019-05-01T03:48:18.189Z,34.97
2019-05-01T03:50:47.494Z,35.63
2019-05-01T03:53:16.082Z,34.33
2019-05-01T03:55:44.491Z,35.40
2019-05-01T03:58:12.880Z,35.87
2019-05-01T04:00:42.922Z,36.73
2019-05-01T04:03:18.974Z,36.50
2019-05-01T04:05:47.402Z,35.07
2019-05-01T04:08:16.280Z,37.37
2019-05-01T04:10:44.994Z,35.53
2019-05-01T04:13:13.369Z,34.33
2019-05-01T04:15:41.756Z,31.30
2019-05-01T04:18:10.175Z,34.47
2019-05-01T04:20:38.797Z,34.83
2019-05-01T04:23:07.216Z,33.10
2019-05-01T04:25:35.600Z,32.87
2019-05-01T04:28:22.200Z,32.33
2019-05-01T04:31:08.685Z,33.10
2019-05-01T04:33:38.783Z,32.80
2019-05-01T04:36:08.844Z,35.37
2019-05-01T04:38:37.222Z,34.63
2019-05-01T04:41:05.619Z,32.73
2019-05-01T04:43:34.012Z,31.10
2019-05-01T04:46:02.429Z,33.93
2019-05-01T04:48:30.810Z,31.37
2019-05-01T04:50:59.214Z,32.97
2019-05-01T04:53:27.619Z,31.27
2019-05-01T04:55:55.997Z,32.00
2019-05-01T04:58:24.401Z,31.77
2019-05-01T05:00:52.782Z,33.00
2019-05-01T05:03:22.904Z,30.87
2019-05-01T05:05:51.389Z,31.10
2019-05-01T05:08:19.767Z,31.17
2019-05-01T05:10:49.645Z,27.77
2019-05-01T05:13:34.918Z,27.10
2019-05-01T05:16:04.973Z,28.77
2019-05-01T05:18:33.359Z,28.33
2019-05-01T05:21:01.768Z,30.20
2019-05-01T05:23:30.731Z,30.17
2019-05-01T05:25:59.143Z,30.43
2019-05-01T05:28:27.555Z,30.90
2019-05-01T05:30:55.931Z,29.73
2019-05-01T05:33:24.527Z,29.33
2019-05-01T05:35:52.902Z,27.77
2019-05-01T05:38:25.825Z,27.00
2019-05-01T05:40:54.259Z,27.80
2019-05-01T05:43:23.207Z,30.63
2019-05-01T05:45:51.615Z,29.53
2019-05-01T05:48:20.022Z,25.93
2019-05-01T05:50:52.716Z,29.93
2019-05-01T05:53:24.384Z,31.13
2019-05-01T05:55:55.468Z,30.67
2019-05-01T05:58:32.419Z,30.97
2019-05-01T06:01:05.607Z,28.00
2019-05-01T06:03:41.562Z,30.27
2019-05-01T06:06:11.607Z,28.27
2019-05-01T06:08:40.021Z,29.27
2019-05-01T06:11:16.308Z,26.73
2019-05-01T06:13:57.007Z,31.17
2019-05-01T06:16:35.664Z,31.17
2019-05-01T06:19:16.169Z,31.07
2019-05-01T06:21:45.947Z,23.97
2019-05-01T06:24:18.758Z,24.33
2019-05-01T06:26:47.159Z,25.93
2019-05-01T06:29:15.548Z,25.87
2019-05-01T06:31:43.958Z,28.50
2019-05-01T06:34:12.388Z,29.63
2019-05-01T06:36:44.162Z,30.20
2019-05-01T06:39:11.913Z,27.80
2019-05-01T06:41:42.829Z,30.00
2019-05-01T06:44:13.628Z,28.03
2019-05-01T06:46:43.690Z,26.43
2019-05-01T06:49:13.747Z,25.20
2019-05-01T06:51:47.843Z,26.87
2019-05-01T06:54:16.085Z,23.60
2019-05-01T06:56:45.151Z,23.00
2019-05-01T06:59:14.136Z,26.53
2019-05-01T07:01:42.544Z,25.27
2019-05-01T07:04:10.941Z,20.90
2019-05-01T07:06:39.348Z,20.37
2019-05-01T07:09:11.924Z,20.30
2019-05-01T07:11:38.669Z,20.17
2019-05-01T07:14:11.149Z,17.83
2019-05-01T07:16:37.979Z,18.47
2019-05-01T07:19:08.548Z,16.63
2019-05-01T07:21:37.091Z,14.93
2019-05-01T07:24:05.480Z,13.80
2019-05-01T07:26:33.907Z,14.37
2019-05-01T07:29:09.899Z,13.77
2019-05-01T07:31:36.754Z,14.07
2019-05-01T07:34:15.987Z,13.10
2019-05-01T07:36:35.243Z,12.87
2019-05-01T07:39:05.107Z,12.53
2019-05-01T07:41:34.004Z,12.90
2019-05-01T07:44:17.220Z,13.37
2019-05-01T07:47:03.639Z,12.77
2019-05-01T07:49:52.771Z,12.40
2019-05-01T07:52:21.078Z,11.93
2019-05-01T07:54:49.483Z,12.20
2019-05-01T07:57:17.854Z,12.67
2019-05-01T07:59:46.270Z,12.67
2019-05-01T08:02:14.749Z,12.07
2019-05-01T08:04:43.149Z,12.60
2019-05-01T08:07:11.566Z,12.03
2019-05-01T08:09:39.941Z,11.50
2019-05-01T08:12:08.365Z,12.90
2019-05-01T08:14:36.755Z,11.73
2019-05-01T08:17:05.188Z,11.73
2019-05-01T08:19:39.321Z,12.27
2019-05-01T08:22:12.619Z,11.00
2019-05-01T08:24:41.027Z,11.40
2019-05-01T08:27:11.069Z,12.77
2019-05-01T08:29:53.310Z,11.63
2019-05-01T08:32:29.032Z,11.80
2019-05-01T08:35:00.540Z,11.57
2019-05-01T08:37:29.130Z,10.03
2019-05-01T08:39:57.570Z,11.13
2019-05-01T08:42:25.988Z,10.70
2019-05-01T08:44:59.948Z,12.07
2019-05-01T08:47:30.490Z,11.80
2019-05-01T08:50:00.477Z,10.87
2019-05-01T08:52:28.869Z,10.83
2019-05-01T08:54:57.333Z,11.07
2019-05-01T08:57:29.181Z,11.13
2019-05-01T09:00:00.188Z,9.83
2019-05-01T09:02:25.971Z,9.67
2019-05-01T09:05:02.140Z,10.20
2019-05-01T09:07:24.420Z,10.57
2019-05-01T09:09:52.819Z,10.03
2019-05-01T09:12:21.208Z,10.67
2019-05-01T09:14:51.177Z,10.37
2019-05-01T09:17:19.852Z,10.33
2019-05-01T09:19:48.270Z,10.50
2019-05-01T09:22:16.666Z,10.87
2019-05-01T09:24:46.010Z,10.77
2019-05-01T09:27:29.853Z,10.03
2019-05-01T09:29:56.710Z,10.13
2019-05-01T09:32:25.110Z,10.10
2019-05-01T09:34:53.486Z,10.40
2019-05-01T09:37:21.908Z,9.70
2019-05-01T09:39:50.295Z,10.03
2019-05-01T09:42:23.683Z,9.43
2019-05-01T09:44:48.800Z,10.17
2019-05-01T09:47:17.379Z,10.40
2019-05-01T09:49:48.732Z,10.90
2019-05-01T09:52:19.001Z,10.57
2019-05-01T09:54:49.168Z,9.93
2019-05-01T09:57:17.547Z,9.47
2019-05-01T09:59:45.930Z,9.40
2019-05-01T10:02:14.911Z,9.20
2019-05-01T10:04:43.295Z,9.27
2019-05-01T10:07:11.876Z,10.00
2019-05-01T10:09:40.266Z,9.50
2019-05-01T10:12:11.667Z,9.23
2019-05-01T10:14:38.722Z,8.60
2019-05-01T10:17:07.186Z,9.37
2019-05-01T10:19:35.581Z,8.30
2019-05-01T10:22:03.993Z,7.93
2019-05-01T10:24:37.660Z,8.63
2019-05-01T10:27:06.009Z,8.53
2019-05-01T10:29:52.274Z,8.03
2019-05-01T10:32:28.515Z,8.80
2019-05-01T10:35:01.253Z,9.57
2019-05-01T10:37:33.565Z,8.57
2019-05-01T10:39:59.683Z,8.50
2019-05-01T10:42:28.071Z,8.53
2019-05-01T10:44:56.482Z,8.53
2019-05-01T10:47:24.860Z,8.50
2019-05-01T10:49:53.292Z,9.03
2019-05-01T10:52:21.706Z,8.97
2019-05-01T10:54:50.083Z,8.23
2019-05-01T10:57:18.496Z,7.80
2019-05-01T10:59:46.898Z,8.33
2019-05-01T11:02:16.984Z,6.93
2019-05-01T11:04:45.377Z,6.83
2019-05-01T11:07:16.626Z,6.53
2019-05-01T11:09:45.045Z,6.93
2019-05-01T11:12:13.416Z,6.67
2019-05-01T11:14:41.831Z,7.20
2019-05-01T11:17:10.246Z,6.90
2019-05-01T11:19:38.653Z,6.93
2019-05-01T11:22:07.027Z,6.47
2019-05-01T11:24:35.427Z,7.40
2019-05-01T11:27:03.818Z,8.83
2019-05-01T11:29:32.237Z,7.27
2019-05-01T11:32:02.298Z,7.27
2019-05-01T11:34:35.321Z,7.23
2019-05-01T11:37:08.027Z,7.30
2019-05-01T11:39:40.796Z,6.87
2019-05-01T11:42:13.005Z,7.37
2019-05-01T11:44:41.349Z,6.80
2019-05-01T11:47:09.763Z,7.63
2019-05-01T11:49:38.144Z,7.63
2019-05-01T11:52:06.513Z,8.07
2019-05-01T11:54:34.926Z,7.10
2019-05-01T11:57:04.337Z,7.37
2019-05-01T11:59:32.974Z,6.80
2019-05-01T12:02:02.570Z,6.67
2019-05-01T12:04:31.033Z,7.23
2019-05-01T12:06:59.444Z,7.80
2019-05-01T12:09:27.828Z,7.37
2019-05-01T12:11:57.915Z,7.63
2019-05-01T12:14:26.294Z,7.57
2019-05-01T12:17:05.102Z,8.27
2019-05-01T12:19:34.314Z,7.57
2019-05-01T12:22:02.718Z,8.87
2019-05-01T12:24:31.141Z,9.57
2019-05-01T12:26:59.499Z,8.30
2019-05-01T12:29:27.899Z,8.90
2019-05-01T12:31:56.297Z,8.97
2019-05-01T12:34:24.699Z,8.17
2019-05-01T12:36:54.717Z,6.47
2019-05-01T12:39:23.128Z,6.23
2019-05-01T12:41:53.138Z,6.43
2019-05-01T12:44:21.552Z,6.53
2019-05-01T12:47:00.299Z,5.53
2019-05-01T12:49:28.705Z,6.13
2019-05-01T12:52:09.885Z,6.13
2019-05-01T12:54:33.110Z,6.23
2019-05-01T12:57:02.478Z,6.60
2019-05-01T12:59:30.857Z,6.30
2019-05-01T13:01:59.316Z,5.87
2019-05-01T13:04:27.661Z,6.30
2019-05-01T13:06:56.851Z,8.27
2019-05-01T13:09:25.248Z,6.57
2019-05-01T13:11:53.651Z,6.97
2019-05-01T13:14:22.064Z,6.30
2019-05-01T13:16:50.443Z,8.00
2019-05-01T13:19:18.853Z,6.00
2019-05-01T13:21:47.232Z,5.73
2019-05-01T13:24:15.643Z,5.57
2019-05-01T13:27:02.121Z,6.27
2019-05-01T13:29:34.835Z,4.37
2019-05-01T13:32:04.842Z,4.33
2019-05-01T13:34:33.242Z,6.00
2019-05-01T13:37:03.247Z,4.77
2019-05-01T13:39:31.668Z,7.43
2019-05-01T13:42:00.056Z,5.90
2019-05-01T13:44:28.470Z,7.20
2019-05-01T13:46:56.891Z,6.90
2019-05-01T13:49:25.243Z,6.17
2019-05-01T13:51:53.656Z,6.37
2019-05-01T13:54:22.030Z,5.83
2019-05-01T13:56:50.435Z,5.80
2019-05-01T13:59:18.807Z,6.07
2019-05-01T14:01:47.214Z,6.80
2019-05-01T14:04:15.876Z,4.87
2019-05-01T14:06:44.255Z,6.53
2019-05-01T14:09:14.231Z,6.07
2019-05-01T14:11:42.604Z,6.90
2019-05-01T14:14:11.005Z,6.43
2019-05-01T14:16:39.386Z,5.73
2019-05-01T14:19:07.802Z,5.70
2019-05-01T14:21:40.792Z,5.50
2019-05-01T14:24:10.762Z,4.73
2019-05-01T14:26:39.235Z,4.77
2019-05-01T14:29:07.614Z,4.73
2019-05-01T14:31:36.029Z,4.10
2019-05-01T14:34:04.407Z,4.37
2019-05-01T14:36:32.813Z,3.87
2019-05-01T14:39:01.182Z,4.03
2019-05-01T14:41:29.603Z,3.90
2019-05-01T14:43:58.000Z,3.70
2019-05-01T14:46:26.411Z,3.20
2019-05-01T14:48:54.814Z,2.77
2019-05-01T14:51:23.197Z,3.50
2019-05-01T14:53:51.605Z,2.90
2019-05-01T14:56:20.038Z,3.83
2019-05-01T14:58:48.875Z,3.80
2019-05-01T15:01:17.220Z,4.70
2019-05-01T15:03:45.627Z,3.97
2019-05-01T15:06:13.996Z,4.70
2019-05-01T15:08:42.343Z,4.93
2019-05-01T15:11:10.751Z,5.13
2019-05-01T15:13:43.536Z,4.17
2019-05-01T15:16:13.577Z,5.50
2019-05-01T15:18:43.607Z,5.70
2019-05-01T15:21:12.091Z,4.47
2019-05-01T15:23:52.876Z,3.93
2019-05-01T15:26:10.553Z,5.43
2019-05-01T15:28:38.968Z,4.03
2019-05-01T15:31:07.401Z,4.10
2019-05-01T15:33:35.827Z,5.27
2019-05-01T15:36:04.252Z,5.37
2019-05-01T15:38:32.652Z,4.60
2019-05-01T15:41:02.663Z,4.20
2019-05-01T15:43:32.711Z,4.23
2019-05-01T15:46:01.108Z,4.20
2019-05-01T15:48:29.496Z,3.70
2019-05-01T15:50:57.947Z,4.50
2019-05-01T15:53:26.358Z,4.23
2019-05-01T15:55:54.736Z,5.00
2019-05-01T15:58:23.167Z,4.60
2019-05-01T16:00:51.563Z,4.80
2019-05-01T16:03:19.968Z,5.10
2019-05-01T16:05:48.409Z,5.30
2019-05-01T16:08:16.780Z,3.27
2019-05-01T16:10:46.827Z,4.17
2019-05-01T16:13:15.238Z,4.90
2019-05-01T16:15:43.622Z,5.07
2019-05-01T16:18:12.025Z,5.67
2019-05-01T16:20:40.405Z,4.63
2019-05-01T16:23:08.813Z,5.10
2019-05-01T16:25:37.221Z,5.07
2019-05-01T16:28:05.612Z,4.33
2019-05-01T16:30:34.013Z,5.57
2019-05-01T16:33:02.413Z,3.87
2019-05-01T16:35:30.802Z,4.97
2019-05-01T16:38:00.843Z,4.67
2019-05-01T16:40:46.027Z,5.30
2019-05-01T16:43:14.507Z,3.70
2019-05-01T16:45:42.912Z,3.80
2019-05-01T16:48:11.289Z,4.27
2019-05-01T16:50:39.701Z,4.33
2019-05-01T16:53:08.070Z,3.63
2019-05-01T16:55:36.480Z,3.97
2019-05-01T16:58:06.462Z,5.17
2019-05-01T17:00:55.851Z,7.87
2019-05-01T17:03:35.075Z,5.13
2019-05-01T17:06:05.119Z,3.83
2019-05-01T17:08:37.900Z,4.50
2019-05-01T17:11:06.960Z,4.10
2019-05-01T17:13:35.355Z,5.00
2019-05-01T17:16:03.814Z,5.40
2019-05-01T17:18:32.206Z,6.50
2019-05-01T17:21:00.601Z,5.40
2019-05-01T17:23:29.008Z,3.80
2019-05-01T17:25:58.736Z,4.97
2019-05-01T17:28:27.143Z,4.57
2019-05-01T17:30:57.190Z,4.77
2019-05-01T17:33:25.569Z,6.00
2019-05-01T17:35:53.979Z,6.23
2019-05-01T17:38:22.368Z,6.13
2019-05-01T17:40:51.965Z,8.17
2019-05-01T17:43:20.879Z,5.33
2019-05-01T17:45:49.260Z,6.70
2019-05-01T17:48:17.670Z,5.53
2019-05-01T17:50:46.086Z,6.80
2019-05-01T17:53:14.464Z,6.97
2019-05-01T17:55:42.878Z,7.93
2019-05-01T17:58:11.349Z,6.20
2019-05-01T18:00:41.385Z,5.63
2019-05-01T18:03:14.283Z,6.50
2019-05-01T18:06:01.325Z,6.53
2019-05-01T18:08:29.668Z,6.30
2019-05-01T18:10:58.157Z,6.63
2019-05-01T18:13:26.568Z,7.30
2019-05-01T18:15:54.949Z,6.67
2019-05-01T18:18:23.437Z,6.23
2019-05-01T18:20:51.734Z,6.33
2019-05-01T18:23:21.775Z,5.90
2019-05-01T18:25:54.770Z,6.63
2019-05-01T18:28:39.746Z,6.63
2019-05-01T18:31:09.760Z,7.57
2019-05-01T18:33:38.175Z,7.63
2019-05-01T18:36:06.831Z,7.63
2019-05-01T18:38:43.003Z,8.23
2019-05-01T18:41:20.241Z,7.00
2019-05-01T18:43:48.660Z,7.33
2019-05-01T18:46:17.276Z,6.13
2019-05-01T18:48:45.647Z,6.70
2019-05-01T18:51:16.357Z,6.50
2019-05-01T18:53:44.147Z,7.17
2019-05-01T18:56:12.551Z,6.93
2019-05-01T18:58:40.939Z,8.70
2019-05-01T19:01:10.830Z,8.97
2019-05-01T19:03:42.214Z,9.80
2019-05-01T19:06:09.519Z,9.27
2019-05-01T19:08:37.923Z,8.23
2019-05-01T19:11:12.926Z,8.80
2019-05-01T19:13:36.415Z,8.00
2019-05-01T19:16:08.390Z,9.13
2019-05-01T19:18:34.904Z,8.63
2019-05-01T19:21:03.291Z,9.20
2019-05-01T19:23:33.243Z,9.80
2019-05-01T19:26:05.523Z,9.53
2019-05-01T19:28:32.160Z,10.20
2019-05-01T19:31:00.579Z,10.80
2019-05-01T19:33:28.958Z,9.90
2019-05-01T19:35:57.358Z,10.03
2019-05-01T19:38:29.381Z,10.00
2019-05-01T19:40:56.885Z,10.20
2019-05-01T19:43:25.368Z,10.20
2019-05-01T19:45:53.811Z,11.03
2019-05-01T19:48:22.217Z,10.83
2019-05-01T19:50:50.625Z,10.97
2019-05-01T19:53:19.018Z,12.33
2019-05-01T19:55:47.399Z,12.20
2019-05-01T19:58:15.779Z,12.13
2019-05-01T20:00:53.476Z,12.87
2019-05-01T20:03:21.857Z,14.57
2019-05-01T20:05:50.267Z,12.97
2019-05-01T20:08:18.910Z,14.23
2019-05-01T20:10:47.328Z,22.03
2019-05-01T20:13:15.743Z,15.90
2019-05-01T20:15:44.115Z,14.47
2019-05-01T20:18:12.571Z,15.73
2019-05-01T20:20:40.919Z,15.47
2019-05-01T20:23:09.334Z,15.47
2019-05-01T20:25:37.727Z,15.10
2019-05-01T20:28:06.133Z,15.90
2019-05-01T20:30:34.600Z,15.73
2019-05-01T20:33:03.735Z,15.40
2019-05-01T20:35:34.334Z,15.00
2019-05-01T20:38:02.883Z,21.63
2019-05-01T20:40:31.268Z,28.00
2019-05-01T20:43:01.007Z,25.13
2019-05-01T20:45:29.875Z,20.67
2019-05-01T20:47:58.383Z,26.77
2019-05-01T20:50:26.789Z,20.70
2019-05-01T20:52:55.320Z,16.90
2019-05-01T20:55:23.762Z,16.23
2019-05-01T20:57:53.804Z,17.90
2019-05-01T21:00:23.942Z,16.47
2019-05-01T21:02:52.331Z,15.90
2019-05-01T21:05:38.547Z,16.13
2019-05-01T21:08:14.146Z,16.90
2019-05-01T21:10:56.176Z,17.23
2019-05-01T21:13:25.128Z,17.00
2019-05-01T21:15:56.243Z,16.20
2019-05-01T21:18:25.975Z,17.87
2019-05-01T21:20:54.133Z,17.63
2019-05-01T21:23:23.316Z,17.97
2019-05-01T21:25:53.735Z,17.50
2019-05-01T21:28:23.847Z,17.73
2019-05-01T21:30:51.925Z,18.57
2019-05-01T21:33:20.330Z,19.77
2019-05-01T21:35:48.726Z,19.13
2019-05-01T21:38:17.148Z,18.60
2019-05-01T21:40:45.558Z,19.50
2019-05-01T21:43:13.925Z,18.77
2019-05-01T21:45:43.385Z,19.30
2019-05-01T21:48:13.386Z,19.50
2019-05-01T21:50:43.750Z,19.93
2019-05-01T21:53:12.842Z,20.00
2019-05-01T21:55:41.368Z,20.13
2019-05-01T21:58:09.739Z,21.33
2019-05-01T22:00:39.960Z,21.83
2019-05-01T22:03:08.632Z,22.33
2019-05-01T22:05:39.743Z,20.90
2019-05-01T22:08:07.047Z,22.07
2019-05-01T22:10:35.457Z,21.73
2019-05-01T22:13:04.214Z,21.83
2019-05-01T22:15:47.276Z,21.43
2019-05-01T22:18:24.153Z,21.23
2019-05-01T22:21:03.355Z,21.57
2019-05-01T22:23:39.306Z,21.80
2019-05-01T22:26:07.692Z,22.00
2019-05-01T22:28:37.697Z,22.50
2019-05-01T22:31:23.442Z,23.13
2019-05-01T22:33:53.564Z,22.23
2019-05-01T22:36:21.949Z,23.00
2019-05-01T22:38:50.351Z,23.60
2019-05-01T22:41:18.759Z,23.47
2019-05-01T22:43:47.143Z,23.70
2019-05-01T22:46:17.271Z,23.33
2019-05-01T22:48:45.646Z,24.50
2019-05-01T22:51:15.691Z,24.70
2019-05-01T22:53:44.113Z,24.63
2019-05-01T22:56:12.480Z,24.63
2019-05-01T22:58:40.879Z,24.23
2019-05-01T23:01:13.147Z,25.63
2019-05-01T23:03:43.827Z,27.03
2019-05-01T23:06:12.365Z,25.10
2019-05-01T23:08:40.775Z,24.93
2019-05-01T23:11:19.795Z,27.67
2019-05-01T23:13:39.213Z,26.47
2019-05-01T23:16:09.311Z,27.47
2019-05-01T23:18:37.770Z,25.70
2019-05-01T23:21:09.756Z,26.63
2019-05-01T23:23:36.198Z,27.73
2019-05-01T23:26:04.609Z,26.03
2019-05-01T23:28:34.912Z,26.00
2019-05-01T23:31:03.063Z,25.10
2019-05-01T23:33:31.416Z,24.87
2019-05-01T23:35:59.892Z,25.67
2019-05-01T23:38:28.294Z,25.27
2019-05-01T23:40:56.729Z,24.87
2019-05-01T23:43:27.790Z,25.47
2019-05-01T23:45:55.107Z,24.90
2019-05-01T23:48:23.523Z,25.07
2019-05-01T23:50:51.893Z,26.80
2019-05-01T23:53:20.286Z,26.67
2019-05-01T23:55:48.664Z,24.83
2019-05-01T23:58:17.078Z,26.30
